Terminal Aerodrome Forecast
Issued by NWS Tampa Bay Area, FL

Home | Current Version | Previous Version | Text Only | Print | Product List | Glossary On
Versions: 1 2 3 4 5 6 7 8 9 10 11 12 13 14 15 16 17
000
FTUS42 KTBW 142300
TAFFMY
TAF
KFMY 142331Z 1500/1524 VRB03KT P6SM BKN100
     FM151500 11006KT P6SM VCTS SCT035CB SCT250
     FM151800 01006KT P6SM VCTS SCT035CB SCT250
     FM152200 34006KT P6SM VCTS SCT035CB BKN250=

USA.gov is the U.S. government's official web portal to all federal, state and local government web resources and services.